sensor_id;sensor_type;location;lat;lon;timestamp;P1;durP1;ratioP1;P2;durP2;ratioP2
2728;SDS011;1372;47.956;7.830;2023-07-29T00:00:36;1.00;;;0.90;;
2728;SDS011;1372;47.956;7.830;2023-07-29T00:03:06;1.80;;;0.90;;
2728;SDS011;1372;47.956;7.830;2023-07-29T00:05:36;3.03;;;0.70;;
2728;SDS011;1372;47.956;7.830;2023-07-29T00:08:05;0.77;;;0.77;;
2728;SDS011;1372;47.956;7.830;2023-07-29T00:10:35;1.97;;;0.90;;
2728;SDS011;1372;47.956;7.830;2023-07-29T00:13:05;1.20;;;0.70;;
2728;SDS011;1372;47.956;7.830;2023-07-29T00:15:37;0.80;;;0.80;;
2728;SDS011;1372;47.956;7.830;2023-07-29T00:18:07;1.70;;;1.20;;
2728;SDS011;1372;47.956;7.830;2023-07-29T00:20:36;2.00;;;0.80;;
2728;SDS011;1372;47.956;7.830;2023-07-29T00:23:05;0.90;;;0.87;;
2728;SDS011;1372;47.956;7.830;2023-07-29T00:25:34;1.00;;;0.80;;
2728;SDS011;1372;47.956;7.830;2023-07-29T00:28:03;1.00;;;0.80;;
2728;SDS011;1372;47.956;7.830;2023-07-29T00:30:32;1.27;;;1.17;;
2728;SDS011;1372;47.956;7.830;2023-07-29T00:33:01;1.57;;;0.93;;
2728;SDS011;1372;47.956;7.830;2023-07-29T00:35:31;1.00;;;0.90;;
2728;SDS011;1372;47.956;7.830;2023-07-29T00:38:00;1.60;;;1.33;;
2728;SDS011;1372;47.956;7.830;2023-07-29T00:40:29;0.90;;;0.90;;
2728;SDS011;1372;47.956;7.830;2023-07-29T00:42:58;0.70;;;0.70;;
2728;SDS011;1372;47.956;7.830;2023-07-29T00:45:27;1.10;;;0.70;;
2728;SDS011;1372;47.956;7.830;2023-07-29T00:48:00;1.33;;;0.80;;
2728;SDS011;1372;47.956;7.830;2023-07-29T00:50:32;2.27;;;1.13;;
2728;SDS011;1372;47.956;7.830;2023-07-29T00:53:01;0.70;;;0.70;;
2728;SDS011;1372;47.956;7.830;2023-07-29T00:55:29;1.03;;;0.93;;
2728;SDS011;1372;47.956;7.830;2023-07-29T00:57:58;2.10;;;1.07;;
2728;SDS011;1372;47.956;7.830;2023-07-29T01:00:28;1.13;;;0.93;;
2728;SDS011;1372;47.956;7.830;2023-07-29T01:02:57;1.10;;;1.10;;
2728;SDS011;1372;47.956;7.830;2023-07-29T01:05:27;1.40;;;1.30;;
2728;SDS011;1372;47.956;7.830;2023-07-29T01:08:05;1.17;;;1.07;;
2728;SDS011;1372;47.956;7.830;2023-07-29T01:10:46;2.40;;;0.90;;
2728;SDS011;1372;47.956;7.830;2023-07-29T01:13:22;0.87;;;0.87;;
2728;SDS011;1372;47.956;7.830;2023-07-29T01:16:00;2.30;;;0.70;;
2728;SDS011;1372;47.956;7.830;2023-07-29T01:18:35;2.40;;;1.10;;
2728;SDS011;1372;47.956;7.830;2023-07-29T01:21:11;1.33;;;1.03;;
2728;SDS011;1372;47.956;7.830;2023-07-29T01:23:42;1.23;;;0.90;;
2728;SDS011;1372;47.956;7.830;2023-07-29T01:26:12;0.90;;;0.90;;
2728;SDS011;1372;47.956;7.830;2023-07-29T01:28:41;1.63;;;1.03;;
2728;SDS011;1372;47.956;7.830;2023-07-29T01:31:10;2.30;;;0.73;;
2728;SDS011;1372;47.956;7.830;2023-07-29T01:33:51;1.00;;;0.80;;
2728;SDS011;1372;47.956;7.830;2023-07-29T01:36:36;3.00;;;1.07;;
2728;SDS011;1372;47.956;7.830;2023-07-29T01:39:11;1.40;;;1.07;;
2728;SDS011;1372;47.956;7.830;2023-07-29T01:41:42;0.80;;;0.80;;
2728;SDS011;1372;47.956;7.830;2023-07-29T01:44:12;1.33;;;1.10;;
2728;SDS011;1372;47.956;7.830;2023-07-29T01:46:41;1.53;;;0.90;;
2728;SDS011;1372;47.956;7.830;2023-07-29T01:49:12;0.73;;;0.73;;
2728;SDS011;1372;47.956;7.830;2023-07-29T01:51:41;1.20;;;1.10;;
2728;SDS011;1372;47.956;7.830;2023-07-29T01:54:11;1.30;;;0.67;;
2728;SDS011;1372;47.956;7.830;2023-07-29T01:56:40;4.20;;;1.27;;
2728;SDS011;1372;47.956;7.830;2023-07-29T01:59:09;0.90;;;0.90;;
2728;SDS011;1372;47.956;7.830;2023-07-29T02:01:38;1.00;;;0.90;;
2728;SDS011;1372;47.956;7.830;2023-07-29T02:04:07;1.73;;;1.20;;
2728;SDS011;1372;47.956;7.830;2023-07-29T02:06:36;2.37;;;0.83;;
2728;SDS011;1372;47.956;7.830;2023-07-29T02:09:05;1.20;;;1.20;;
2728;SDS011;1372;47.956;7.830;2023-07-29T02:11:35;2.07;;;1.20;;
2728;SDS011;1372;47.956;7.830;2023-07-29T02:14:04;1.10;;;1.00;;
2728;SDS011;1372;47.956;7.830;2023-07-29T02:16:33;1.53;;;0.90;;
2728;SDS011;1372;47.956;7.830;2023-07-29T02:19:03;0.90;;;0.87;;
2728;SDS011;1372;47.956;7.830;2023-07-29T02:21:32;1.30;;;1.20;;
2728;SDS011;1372;47.956;7.830;2023-07-29T02:24:00;1.20;;;1.10;;
2728;SDS011;1372;47.956;7.830;2023-07-29T02:26:30;0.90;;;0.63;;
2728;SDS011;1372;47.956;7.830;2023-07-29T02:29:00;1.27;;;0.93;;
2728;SDS011;1372;47.956;7.830;2023-07-29T02:31:29;1.63;;;1.30;;
2728;SDS011;1372;47.956;7.830;2023-07-29T02:33:57;3.23;;;1.23;;
2728;SDS011;1372;47.956;7.830;2023-07-29T02:36:26;1.13;;;1.03;;
2728;SDS011;1372;47.956;7.830;2023-07-29T02:38:55;1.63;;;1.33;;
2728;SDS011;1372;47.956;7.830;2023-07-29T02:41:24;2.00;;;1.07;;
2728;SDS011;1372;47.956;7.830;2023-07-29T02:43:56;7.60;;;1.40;;
2728;SDS011;1372;47.956;7.830;2023-07-29T02:46:26;1.30;;;1.20;;
2728;SDS011;1372;47.956;7.830;2023-07-29T02:48:55;1.37;;;1.27;;
2728;SDS011;1372;47.956;7.830;2023-07-29T02:51:24;1.17;;;1.07;;
2728;SDS011;1372;47.956;7.830;2023-07-29T02:53:53;1.57;;;1.00;;
2728;SDS011;1372;47.956;7.830;2023-07-29T02:56:24;3.50;;;1.10;;
2728;SDS011;1372;47.956;7.830;2023-07-29T02:58:53;1.17;;;1.00;;
2728;SDS011;1372;47.956;7.830;2023-07-29T03:01:22;1.40;;;1.03;;
2728;SDS011;1372;47.956;7.830;2023-07-29T03:03:53;1.47;;;1.37;;
2728;SDS011;1372;47.956;7.830;2023-07-29T03:06:22;1.20;;;1.10;;
2728;SDS011;1372;47.956;7.830;2023-07-29T03:08:51;1.07;;;1.07;;
2728;SDS011;1372;47.956;7.830;2023-07-29T03:11:20;2.00;;;1.07;;
2728;SDS011;1372;47.956;7.830;2023-07-29T03:13:49;1.70;;;1.10;;
2728;SDS011;1372;47.956;7.830;2023-07-29T03:16:18;1.07;;;0.97;;
2728;SDS011;1372;47.956;7.830;2023-07-29T03:18:47;1.73;;;1.47;;
2728;SDS011;1372;47.956;7.830;2023-07-29T03:21:18;1.50;;;1.30;;
2728;SDS011;1372;47.956;7.830;2023-07-29T03:23:47;2.43;;;1.30;;
2728;SDS011;1372;47.956;7.830;2023-07-29T03:26:16;1.30;;;1.20;;
2728;SDS011;1372;47.956;7.830;2023-07-29T03:28:45;1.37;;;1.27;;
2728;SDS011;1372;47.956;7.830;2023-07-29T03:31:13;1.67;;;1.00;;
2728;SDS011;1372;47.956;7.830;2023-07-29T03:33:42;1.20;;;1.10;;
2728;SDS011;1372;47.956;7.830;2023-07-29T03:36:11;1.30;;;1.20;;
2728;SDS011;1372;47.956;7.830;2023-07-29T03:38:42;1.27;;;1.17;;
2728;SDS011;1372;47.956;7.830;2023-07-29T03:41:14;1.33;;;1.23;;
2728;SDS011;1372;47.956;7.830;2023-07-29T03:43:42;1.37;;;1.27;;
2728;SDS011;1372;47.956;7.830;2023-07-29T03:46:11;2.40;;;1.67;;
2728;SDS011;1372;47.956;7.830;2023-07-29T03:48:41;1.30;;;1.20;;
2728;SDS011;1372;47.956;7.830;2023-07-29T03:51:10;1.70;;;1.60;;
2728;SDS011;1372;47.956;7.830;2023-07-29T03:53:40;1.47;;;1.37;;
2728;SDS011;1372;47.956;7.830;2023-07-29T03:56:10;1.37;;;1.27;;
2728;SDS011;1372;47.956;7.830;2023-07-29T03:58:42;1.50;;;1.40;;
2728;SDS011;1372;47.956;7.830;2023-07-29T04:01:11;1.43;;;1.33;;
2728;SDS011;1372;47.956;7.830;2023-07-29T04:03:40;0.90;;;0.90;;
2728;SDS011;1372;47.956;7.830;2023-07-29T04:06:09;1.77;;;1.27;;
2728;SDS011;1372;47.956;7.830;2023-07-29T04:08:38;1.50;;;1.40;;
2728;SDS011;1372;47.956;7.830;2023-07-29T04:11:09;1.50;;;1.40;;
2728;SDS011;1372;47.956;7.830;2023-07-29T04:13:38;1.87;;;1.77;;
2728;SDS011;1372;47.956;7.830;2023-07-29T04:16:07;2.63;;;1.30;;
2728;SDS011;1372;47.956;7.830;2023-07-29T04:18:38;1.47;;;1.37;;
2728;SDS011;1372;47.956;7.830;2023-07-29T04:21:07;1.50;;;1.40;;
2728;SDS011;1372;47.956;7.830;2023-07-29T04:23:35;1.40;;;1.30;;
2728;SDS011;1372;47.956;7.830;2023-07-29T04:26:05;1.50;;;1.40;;
2728;SDS011;1372;47.956;7.830;2023-07-29T04:28:35;1.53;;;1.43;;
2728;SDS011;1372;47.956;7.830;2023-07-29T04:31:04;1.47;;;1.23;;
2728;SDS011;1372;47.956;7.830;2023-07-29T04:33:35;1.50;;;1.40;;
2728;SDS011;1372;47.956;7.830;2023-07-29T04:36:04;1.60;;;1.50;;
2728;SDS011;1372;47.956;7.830;2023-07-29T04:38:37;1.47;;;1.37;;
2728;SDS011;1372;47.956;7.830;2023-07-29T04:41:06;1.63;;;1.53;;
2728;SDS011;1372;47.956;7.830;2023-07-29T04:43:37;1.83;;;1.73;;
2728;SDS011;1372;47.956;7.830;2023-07-29T04:46:06;1.80;;;1.67;;
2728;SDS011;1372;47.956;7.830;2023-07-29T04:48:35;2.40;;;1.93;;
2728;SDS011;1372;47.956;7.830;2023-07-29T04:51:04;1.47;;;1.37;;
2728;SDS011;1372;47.956;7.830;2023-07-29T04:53:33;1.50;;;1.40;;
2728;SDS011;1372;47.956;7.830;2023-07-29T04:56:03;2.50;;;1.60;;
2728;SDS011;1372;47.956;7.830;2023-07-29T04:58:32;2.23;;;2.00;;
2728;SDS011;1372;47.956;7.830;2023-07-29T05:01:03;1.73;;;1.60;;
2728;SDS011;1372;47.956;7.830;2023-07-29T05:03:33;1.60;;;1.50;;
2728;SDS011;1372;47.956;7.830;2023-07-29T05:06:01;1.73;;;1.57;;
2728;SDS011;1372;47.956;7.830;2023-07-29T05:08:30;1.70;;;1.60;;
2728;SDS011;1372;47.956;7.830;2023-07-29T05:10:59;2.20;;;2.00;;
2728;SDS011;1372;47.956;7.830;2023-07-29T05:13:28;1.80;;;1.43;;
2728;SDS011;1372;47.956;7.830;2023-07-29T05:15:57;2.73;;;1.90;;
2728;SDS011;1372;47.956;7.830;2023-07-29T05:18:27;2.13;;;1.97;;
2728;SDS011;1372;47.956;7.830;2023-07-29T05:20:56;2.70;;;2.20;;
2728;SDS011;1372;47.956;7.830;2023-07-29T05:23:25;2.40;;;2.20;;
2728;SDS011;1372;47.956;7.830;2023-07-29T05:25:54;1.80;;;1.70;;
2728;SDS011;1372;47.956;7.830;2023-07-29T05:28:22;1.83;;;1.70;;
2728;SDS011;1372;47.956;7.830;2023-07-29T05:30:51;2.20;;;1.90;;
2728;SDS011;1372;47.956;7.830;2023-07-29T05:33:20;2.00;;;1.90;;
2728;SDS011;1372;47.956;7.830;2023-07-29T05:35:52;1.90;;;1.80;;
2728;SDS011;1372;47.956;7.830;2023-07-29T05:38:21;1.70;;;1.60;;
2728;SDS011;1372;47.956;7.830;2023-07-29T05:40:50;2.27;;;2.07;;
2728;SDS011;1372;47.956;7.830;2023-07-29T05:43:19;3.50;;;2.00;;
2728;SDS011;1372;47.956;7.830;2023-07-29T05:45:48;1.97;;;1.83;;
2728;SDS011;1372;47.956;7.830;2023-07-29T05:48:19;1.70;;;1.40;;
2728;SDS011;1372;47.956;7.830;2023-07-29T05:50:48;2.20;;;2.10;;
2728;SDS011;1372;47.956;7.830;2023-07-29T05:53:19;2.00;;;1.80;;
2728;SDS011;1372;47.956;7.830;2023-07-29T05:55:47;1.80;;;1.70;;
2728;SDS011;1372;47.956;7.830;2023-07-29T05:58:19;1.60;;;1.50;;
2728;SDS011;1372;47.956;7.830;2023-07-29T06:00:48;1.70;;;1.60;;
2728;SDS011;1372;47.956;7.830;2023-07-29T06:03:16;1.50;;;1.40;;
2728;SDS011;1372;47.956;7.830;2023-07-29T06:05:45;1.87;;;1.77;;
2728;SDS011;1372;47.956;7.830;2023-07-29T06:08:14;2.20;;;1.97;;
2728;SDS011;1372;47.956;7.830;2023-07-29T06:10:45;2.87;;;2.20;;
2728;SDS011;1372;47.956;7.830;2023-07-29T06:13:14;1.90;;;1.80;;
2728;SDS011;1372;47.956;7.830;2023-07-29T06:15:43;2.20;;;1.87;;
2728;SDS011;1372;47.956;7.830;2023-07-29T06:18:12;1.80;;;1.70;;
2728;SDS011;1372;47.956;7.830;2023-07-29T06:20:41;1.80;;;1.70;;
2728;SDS011;1372;47.956;7.830;2023-07-29T06:23:10;2.57;;;2.37;;
2728;SDS011;1372;47.956;7.830;2023-07-29T06:25:39;1.83;;;1.73;;
2728;SDS011;1372;47.956;7.830;2023-07-29T06:28:09;2.40;;;2.07;;
2728;SDS011;1372;47.956;7.830;2023-07-29T06:30:38;2.00;;;1.80;;
2728;SDS011;1372;47.956;7.830;2023-07-29T06:33:07;2.17;;;2.00;;
2728;SDS011;1372;47.956;7.830;2023-07-29T06:35:36;1.87;;;1.77;;
2728;SDS011;1372;47.956;7.830;2023-07-29T06:38:05;2.13;;;1.63;;
2728;SDS011;1372;47.956;7.830;2023-07-29T06:40:36;2.47;;;1.60;;
2728;SDS011;1372;47.956;7.830;2023-07-29T06:43:05;4.73;;;1.60;;
2728;SDS011;1372;47.956;7.830;2023-07-29T06:45:35;1.40;;;1.30;;
2728;SDS011;1372;47.956;7.830;2023-07-29T06:48:04;2.30;;;1.87;;
2728;SDS011;1372;47.956;7.830;2023-07-29T06:50:33;3.40;;;1.90;;
2728;SDS011;1372;47.956;7.830;2023-07-29T06:53:02;1.90;;;1.80;;
2728;SDS011;1372;47.956;7.830;2023-07-29T06:55:31;1.90;;;1.80;;
2728;SDS011;1372;47.956;7.830;2023-07-29T06:58:00;3.50;;;2.07;;
2728;SDS011;1372;47.956;7.830;2023-07-29T07:00:29;4.30;;;1.73;;
2728;SDS011;1372;47.956;7.830;2023-07-29T07:02:59;2.33;;;1.90;;
2728;SDS011;1372;47.956;7.830;2023-07-29T07:05:28;3.73;;;2.13;;
2728;SDS011;1372;47.956;7.830;2023-07-29T07:07:57;2.00;;;1.90;;
2728;SDS011;1372;47.956;7.830;2023-07-29T07:10:26;2.93;;;1.93;;
2728;SDS011;1372;47.956;7.830;2023-07-29T07:12:55;2.37;;;2.17;;
2728;SDS011;1372;47.956;7.830;2023-07-29T07:15:26;1.97;;;1.87;;
2728;SDS011;1372;47.956;7.830;2023-07-29T07:17:55;3.03;;;2.33;;
2728;SDS011;1372;47.956;7.830;2023-07-29T07:20:25;2.30;;;2.10;;
2728;SDS011;1372;47.956;7.830;2023-07-29T07:22:54;2.10;;;1.90;;
2728;SDS011;1372;47.956;7.830;2023-07-29T07:25:23;2.40;;;1.90;;
2728;SDS011;1372;47.956;7.830;2023-07-29T07:27:54;1.60;;;1.50;;
2728;SDS011;1372;47.956;7.830;2023-07-29T07:30:23;1.73;;;1.63;;
2728;SDS011;1372;47.956;7.830;2023-07-29T07:32:52;3.23;;;2.37;;
2728;SDS011;1372;47.956;7.830;2023-07-29T07:35:21;1.63;;;1.53;;
2728;SDS011;1372;47.956;7.830;2023-07-29T07:37:51;2.13;;;1.93;;
2728;SDS011;1372;47.956;7.830;2023-07-29T07:40:20;2.10;;;2.00;;
2728;SDS011;1372;47.956;7.830;2023-07-29T07:42:49;1.77;;;1.63;;
2728;SDS011;1372;47.956;7.830;2023-07-29T07:45:19;1.73;;;1.63;;
2728;SDS011;1372;47.956;7.830;2023-07-29T07:47:48;2.77;;;1.77;;
2728;SDS011;1372;47.956;7.830;2023-07-29T07:50:20;2.43;;;2.23;;
2728;SDS011;1372;47.956;7.830;2023-07-29T07:52:53;1.90;;;1.80;;
2728;SDS011;1372;47.956;7.830;2023-07-29T07:55:22;2.90;;;2.43;;
2728;SDS011;1372;47.956;7.830;2023-07-29T07:57:54;2.10;;;1.90;;
2728;SDS011;1372;47.956;7.830;2023-07-29T08:00:26;2.50;;;2.30;;
2728;SDS011;1372;47.956;7.830;2023-07-29T08:02:56;4.23;;;1.97;;
2728;SDS011;1372;47.956;7.830;2023-07-29T08:05:29;2.13;;;1.93;;
2728;SDS011;1372;47.956;7.830;2023-07-29T08:08:01;3.00;;;2.50;;
2728;SDS011;1372;47.956;7.830;2023-07-29T08:10:31;2.90;;;2.70;;
2728;SDS011;1372;47.956;7.830;2023-07-29T08:13:07;2.73;;;2.53;;
2728;SDS011;1372;47.956;7.830;2023-07-29T08:15:37;1.90;;;1.80;;
2728;SDS011;1372;47.956;7.830;2023-07-29T08:18:10;2.73;;;2.07;;
2728;SDS011;1372;47.956;7.830;2023-07-29T08:20:39;2.40;;;1.87;;
2728;SDS011;1372;47.956;7.830;2023-07-29T08:23:09;2.03;;;1.93;;
2728;SDS011;1372;47.956;7.830;2023-07-29T08:25:38;1.90;;;1.77;;
2728;SDS011;1372;47.956;7.830;2023-07-29T08:28:06;2.20;;;2.10;;
2728;SDS011;1372;47.956;7.830;2023-07-29T08:30:37;2.80;;;2.60;;
2728;SDS011;1372;47.956;7.830;2023-07-29T08:33:06;2.03;;;1.93;;
2728;SDS011;1372;47.956;7.830;2023-07-29T08:35:35;2.43;;;2.10;;
2728;SDS011;1372;47.956;7.830;2023-07-29T08:38:04;2.47;;;2.27;;
2728;SDS011;1372;47.956;7.830;2023-07-29T08:40:34;2.10;;;2.00;;
2728;SDS011;1372;47.956;7.830;2023-07-29T08:43:05;2.50;;;2.30;;
2728;SDS011;1372;47.956;7.830;2023-07-29T08:45:35;6.13;;;3.60;;
2728;SDS011;1372;47.956;7.830;2023-07-29T08:48:06;2.63;;;2.27;;
2728;SDS011;1372;47.956;7.830;2023-07-29T08:50:38;2.23;;;2.03;;
2728;SDS011;1372;47.956;7.830;2023-07-29T08:53:08;2.50;;;2.30;;
2728;SDS011;1372;47.956;7.830;2023-07-29T08:55:39;2.47;;;2.27;;
2728;SDS011;1372;47.956;7.830;2023-07-29T08:58:08;2.50;;;2.20;;
2728;SDS011;1372;47.956;7.830;2023-07-29T09:00:37;2.47;;;2.27;;
2728;SDS011;1372;47.956;7.830;2023-07-29T09:03:07;2.40;;;2.20;;
2728;SDS011;1372;47.956;7.830;2023-07-29T09:05:36;2.60;;;2.40;;
2728;SDS011;1372;47.956;7.830;2023-07-29T09:08:05;2.93;;;2.20;;
2728;SDS011;1372;47.956;7.830;2023-07-29T09:10:35;2.20;;;2.00;;
2728;SDS011;1372;47.956;7.830;2023-07-29T09:13:06;2.90;;;2.30;;
2728;SDS011;1372;47.956;7.830;2023-07-29T09:15:36;3.10;;;2.13;;
2728;SDS011;1372;47.956;7.830;2023-07-29T09:18:09;2.23;;;2.03;;
2728;SDS011;1372;47.956;7.830;2023-07-29T09:20:41;2.07;;;1.87;;
2728;SDS011;1372;47.956;7.830;2023-07-29T09:23:16;2.43;;;2.23;;
2728;SDS011;1372;47.956;7.830;2023-07-29T09:25:46;3.70;;;2.03;;
2728;SDS011;1372;47.956;7.830;2023-07-29T09:28:17;2.80;;;2.60;;
2728;SDS011;1372;47.956;7.830;2023-07-29T09:30:46;2.67;;;2.10;;
2728;SDS011;1372;47.956;7.830;2023-07-29T09:33:15;2.83;;;2.63;;
2728;SDS011;1372;47.956;7.830;2023-07-29T09:35:46;3.93;;;3.43;;
2728;SDS011;1372;47.956;7.830;2023-07-29T09:38:15;2.40;;;2.20;;
2728;SDS011;1372;47.956;7.830;2023-07-29T09:40:44;2.60;;;2.40;;
2728;SDS011;1372;47.956;7.830;2023-07-29T09:43:13;2.70;;;2.50;;
2728;SDS011;1372;47.956;7.830;2023-07-29T09:45:46;2.50;;;2.30;;
2728;SDS011;1372;47.956;7.830;2023-07-29T09:48:15;2.60;;;2.40;;
2728;SDS011;1372;47.956;7.830;2023-07-29T09:50:50;2.60;;;2.40;;
2728;SDS011;1372;47.956;7.830;2023-07-29T09:53:20;2.87;;;2.67;;
2728;SDS011;1372;47.956;7.830;2023-07-29T09:55:49;3.17;;;2.93;;
2728;SDS011;1372;47.956;7.830;2023-07-29T09:58:25;2.97;;;2.40;;
2728;SDS011;1372;47.956;7.830;2023-07-29T10:00:55;3.20;;;3.00;;
2728;SDS011;1372;47.956;7.830;2023-07-29T10:03:24;2.83;;;2.63;;
2728;SDS011;1372;47.956;7.830;2023-07-29T10:05:54;3.10;;;2.80;;
2728;SDS011;1372;47.956;7.830;2023-07-29T10:08:23;6.80;;;6.10;;
2728;SDS011;1372;47.956;7.830;2023-07-29T10:10:53;20.37;;;17.50;;
2728;SDS011;1372;47.956;7.830;2023-07-29T10:13:24;7.63;;;6.90;;
2728;SDS011;1372;47.956;7.830;2023-07-29T10:15:54;4.87;;;4.17;;
2728;SDS011;1372;47.956;7.830;2023-07-29T10:18:24;3.63;;;3.33;;
2728;SDS011;1372;47.956;7.830;2023-07-29T10:20:54;3.63;;;3.00;;
2728;SDS011;1372;47.956;7.830;2023-07-29T10:23:26;3.80;;;3.50;;
2728;SDS011;1372;47.956;7.830;2023-07-29T10:26:02;2.70;;;2.50;;
2728;SDS011;1372;47.956;7.830;2023-07-29T10:28:33;4.97;;;3.13;;
2728;SDS011;1372;47.956;7.830;2023-07-29T10:31:08;3.00;;;2.80;;
2728;SDS011;1372;47.956;7.830;2023-07-29T10:33:38;2.90;;;2.70;;
2728;SDS011;1372;47.956;7.830;2023-07-29T10:36:08;3.17;;;2.97;;
2728;SDS011;1372;47.956;7.830;2023-07-29T10:38:37;3.80;;;3.47;;
2728;SDS011;1372;47.956;7.830;2023-07-29T10:41:06;3.70;;;3.40;;
2728;SDS011;1372;47.956;7.830;2023-07-29T10:43:37;5.13;;;2.70;;
2728;SDS011;1372;47.956;7.830;2023-07-29T10:46:14;3.63;;;3.17;;
2728;SDS011;1372;47.956;7.830;2023-07-29T10:48:51;3.47;;;3.07;;
2728;SDS011;1372;47.956;7.830;2023-07-29T10:51:22;3.20;;;3.00;;
2728;SDS011;1372;47.956;7.830;2023-07-29T10:54:01;2.67;;;2.47;;
2728;SDS011;1372;47.956;7.830;2023-07-29T10:56:33;3.33;;;3.03;;
2728;SDS011;1372;47.956;7.830;2023-07-29T11:02:15;3.10;;;2.50;;
2728;SDS011;1372;47.956;7.830;2023-07-29T11:04:48;2.87;;;2.67;;
2728;SDS011;1372;47.956;7.830;2023-07-29T11:07:19;2.80;;;2.60;;
2728;SDS011;1372;47.956;7.830;2023-07-29T11:09:57;2.40;;;2.20;;
2728;SDS011;1372;47.956;7.830;2023-07-29T11:12:38;2.33;;;2.20;;
2728;SDS011;1372;47.956;7.830;2023-07-29T11:15:24;2.27;;;2.17;;
2728;SDS011;1372;47.956;7.830;2023-07-29T11:17:54;2.30;;;2.10;;
2728;SDS011;1372;47.956;7.830;2023-07-29T11:20:26;2.93;;;2.43;;
2728;SDS011;1372;47.956;7.830;2023-07-29T11:22:56;2.37;;;2.10;;
2728;SDS011;1372;47.956;7.830;2023-07-29T11:25:27;2.57;;;2.37;;
2728;SDS011;1372;47.956;7.830;2023-07-29T11:27:58;2.80;;;2.40;;
2728;SDS011;1372;47.956;7.830;2023-07-29T11:30:34;2.07;;;1.90;;
2728;SDS011;1372;47.956;7.830;2023-07-29T11:33:07;2.20;;;2.03;;
2728;SDS011;1372;47.956;7.830;2023-07-29T11:35:39;2.33;;;2.20;;
2728;SDS011;1372;47.956;7.830;2023-07-29T11:38:08;2.17;;;2.07;;
2728;SDS011;1372;47.956;7.830;2023-07-29T11:40:43;2.47;;;2.27;;
2728;SDS011;1372;47.956;7.830;2023-07-29T11:43:22;2.47;;;2.27;;
2728;SDS011;1372;47.956;7.830;2023-07-29T11:45:54;2.30;;;2.10;;
2728;SDS011;1372;47.956;7.830;2023-07-29T11:48:26;2.10;;;2.00;;
2728;SDS011;1372;47.956;7.830;2023-07-29T11:50:56;1.83;;;1.73;;
2728;SDS011;1372;47.956;7.830;2023-07-29T11:53:26;2.10;;;1.90;;
2728;SDS011;1372;47.956;7.830;2023-07-29T11:55:57;2.60;;;2.40;;
2728;SDS011;1372;47.956;7.830;2023-07-29T11:58:26;1.97;;;1.87;;
2728;SDS011;1372;47.956;7.830;2023-07-29T12:00:57;4.03;;;2.10;;
2728;SDS011;1372;47.956;7.830;2023-07-29T12:03:26;2.27;;;2.17;;
2728;SDS011;1372;47.956;7.830;2023-07-29T12:05:55;2.40;;;2.20;;
2728;SDS011;1372;47.956;7.830;2023-07-29T12:08:24;2.33;;;2.13;;
2728;SDS011;1372;47.956;7.830;2023-07-29T12:10:54;5.70;;;2.30;;
2728;SDS011;1372;47.956;7.830;2023-07-29T12:13:23;2.07;;;1.93;;
2728;SDS011;1372;47.956;7.830;2023-07-29T12:16:02;2.40;;;2.20;;
2728;SDS011;1372;47.956;7.830;2023-07-29T12:18:32;2.40;;;2.20;;
2728;SDS011;1372;47.956;7.830;2023-07-29T12:21:02;2.37;;;2.20;;
2728;SDS011;1372;47.956;7.830;2023-07-29T12:23:31;2.50;;;2.30;;
2728;SDS011;1372;47.956;7.830;2023-07-29T12:26:00;1.80;;;1.70;;
2728;SDS011;1372;47.956;7.830;2023-07-29T12:28:29;2.60;;;2.40;;
2728;SDS011;1372;47.956;7.830;2023-07-29T12:30:59;2.30;;;2.20;;
2728;SDS011;1372;47.956;7.830;2023-07-29T12:33:33;2.30;;;2.10;;
2728;SDS011;1372;47.956;7.830;2023-07-29T12:36:05;2.40;;;1.80;;
2728;SDS011;1372;47.956;7.830;2023-07-29T12:38:36;2.50;;;2.30;;
2728;SDS011;1372;47.956;7.830;2023-07-29T12:41:05;2.80;;;2.60;;
2728;SDS011;1372;47.956;7.830;2023-07-29T12:43:34;2.30;;;2.10;;
2728;SDS011;1372;47.956;7.830;2023-07-29T12:46:03;2.10;;;2.00;;
2728;SDS011;1372;47.956;7.830;2023-07-29T12:48:37;2.47;;;2.27;;
2728;SDS011;1372;47.956;7.830;2023-07-29T12:51:09;2.80;;;2.60;;
2728;SDS011;1372;47.956;7.830;2023-07-29T12:53:41;2.00;;;1.90;;
2728;SDS011;1372;47.956;7.830;2023-07-29T12:56:17;2.57;;;2.37;;
2728;SDS011;1372;47.956;7.830;2023-07-29T12:58:46;2.60;;;2.40;;
2728;SDS011;1372;47.956;7.830;2023-07-29T13:01:15;2.43;;;2.23;;
2728;SDS011;1372;47.956;7.830;2023-07-29T13:03:57;2.30;;;2.10;;
2728;SDS011;1372;47.956;7.830;2023-07-29T13:06:26;2.87;;;2.07;;
2728;SDS011;1372;47.956;7.830;2023-07-29T13:08:57;2.30;;;2.10;;
2728;SDS011;1372;47.956;7.830;2023-07-29T13:11:26;2.13;;;2.03;;
2728;SDS011;1372;47.956;7.830;2023-07-29T13:13:57;1.97;;;1.87;;
2728;SDS011;1372;47.956;7.830;2023-07-29T13:16:27;2.57;;;2.27;;
2728;SDS011;1372;47.956;7.830;2023-07-29T13:18:59;2.70;;;2.50;;
2728;SDS011;1372;47.956;7.830;2023-07-29T13:21:27;2.90;;;2.70;;
2728;SDS011;1372;47.956;7.830;2023-07-29T13:24:02;2.13;;;1.93;;
2728;SDS011;1372;47.956;7.830;2023-07-29T13:26:31;2.40;;;2.20;;
2728;SDS011;1372;47.956;7.830;2023-07-29T13:29:01;2.40;;;2.20;;
2728;SDS011;1372;47.956;7.830;2023-07-29T13:31:33;1.80;;;1.70;;
2728;SDS011;1372;47.956;7.830;2023-07-29T13:34:03;2.47;;;2.27;;
2728;SDS011;1372;47.956;7.830;2023-07-29T13:36:32;2.70;;;2.50;;
2728;SDS011;1372;47.956;7.830;2023-07-29T13:39:03;2.30;;;2.20;;
2728;SDS011;1372;47.956;7.830;2023-07-29T13:41:32;2.00;;;1.80;;
2728;SDS011;1372;47.956;7.830;2023-07-29T13:44:01;1.70;;;1.60;;
2728;SDS011;1372;47.956;7.830;2023-07-29T13:46:34;2.33;;;2.13;;
2728;SDS011;1372;47.956;7.830;2023-07-29T13:49:05;2.20;;;2.00;;
2728;SDS011;1372;47.956;7.830;2023-07-29T13:51:34;2.90;;;2.37;;
2728;SDS011;1372;47.956;7.830;2023-07-29T13:54:03;2.20;;;2.00;;
2728;SDS011;1372;47.956;7.830;2023-07-29T13:56:32;2.10;;;1.90;;
2728;SDS011;1372;47.956;7.830;2023-07-29T13:59:02;2.30;;;2.10;;
2728;SDS011;1372;47.956;7.830;2023-07-29T14:01:31;2.40;;;2.20;;
2728;SDS011;1372;47.956;7.830;2023-07-29T14:04:00;1.90;;;1.80;;
2728;SDS011;1372;47.956;7.830;2023-07-29T14:06:33;2.27;;;2.07;;
2728;SDS011;1372;47.956;7.830;2023-07-29T14:09:11;2.47;;;2.37;;
2728;SDS011;1372;47.956;7.830;2023-07-29T14:11:40;3.00;;;2.73;;
2728;SDS011;1372;47.956;7.830;2023-07-29T14:14:09;2.30;;;2.10;;
2728;SDS011;1372;47.956;7.830;2023-07-29T14:16:38;2.30;;;2.10;;
2728;SDS011;1372;47.956;7.830;2023-07-29T14:19:08;4.03;;;2.50;;
2728;SDS011;1372;47.956;7.830;2023-07-29T14:21:40;2.70;;;2.50;;
2728;SDS011;1372;47.956;7.830;2023-07-29T14:24:09;2.50;;;2.30;;
2728;SDS011;1372;47.956;7.830;2023-07-29T14:26:38;4.57;;;2.70;;
2728;SDS011;1372;47.956;7.830;2023-07-29T14:29:07;3.47;;;3.13;;
2728;SDS011;1372;47.956;7.830;2023-07-29T14:31:37;3.27;;;2.97;;
2728;SDS011;1372;47.956;7.830;2023-07-29T14:34:07;4.33;;;3.20;;
2728;SDS011;1372;47.956;7.830;2023-07-29T14:36:36;3.60;;;2.80;;
2728;SDS011;1372;47.956;7.830;2023-07-29T14:39:07;4.13;;;2.77;;
2728;SDS011;1372;47.956;7.830;2023-07-29T14:41:36;2.90;;;2.30;;
2728;SDS011;1372;47.956;7.830;2023-07-29T14:44:05;6.10;;;3.10;;
2728;SDS011;1372;47.956;7.830;2023-07-29T14:46:34;3.90;;;2.90;;
2728;SDS011;1372;47.956;7.830;2023-07-29T14:49:06;3.53;;;2.93;;
2728;SDS011;1372;47.956;7.830;2023-07-29T14:51:35;3.10;;;2.63;;
2728;SDS011;1372;47.956;7.830;2023-07-29T14:54:04;4.33;;;3.27;;
2728;SDS011;1372;47.956;7.830;2023-07-29T14:56:35;3.20;;;3.00;;
2728;SDS011;1372;47.956;7.830;2023-07-29T14:59:04;2.97;;;2.67;;
2728;SDS011;1372;47.956;7.830;2023-07-29T15:01:32;3.47;;;3.17;;
2728;SDS011;1372;47.956;7.830;2023-07-29T15:04:02;4.90;;;3.57;;
2728;SDS011;1372;47.956;7.830;2023-07-29T15:06:32;3.30;;;3.00;;
2728;SDS011;1372;47.956;7.830;2023-07-29T15:09:02;2.80;;;2.60;;
2728;SDS011;1372;47.956;7.830;2023-07-29T15:11:32;6.97;;;3.17;;
2728;SDS011;1372;47.956;7.830;2023-07-29T15:14:01;3.10;;;2.80;;
2728;SDS011;1372;47.956;7.830;2023-07-29T15:16:31;3.43;;;3.00;;
2728;SDS011;1372;47.956;7.830;2023-07-29T15:19:02;2.80;;;2.60;;
2728;SDS011;1372;47.956;7.830;2023-07-29T15:21:33;2.67;;;2.47;;
2728;SDS011;1372;47.956;7.830;2023-07-29T15:24:03;3.37;;;3.07;;
2728;SDS011;1372;47.956;7.830;2023-07-29T15:26:36;2.80;;;2.60;;
2728;SDS011;1372;47.956;7.830;2023-07-29T15:29:06;3.63;;;2.73;;
2728;SDS011;1372;47.956;7.830;2023-07-29T15:31:35;3.50;;;3.20;;
2728;SDS011;1372;47.956;7.830;2023-07-29T15:34:04;3.73;;;2.43;;
2728;SDS011;1372;47.956;7.830;2023-07-29T15:36:33;2.90;;;2.63;;